createdAt,value
2022-11-05T00:00:15.383Z,76.16
2022-11-05T00:03:12.315Z,76.31
2022-11-05T00:06:01.387Z,76.18
2022-11-05T00:08:46.662Z,76.62
2022-11-05T00:11:18.147Z,75.75
2022-11-05T00:14:04.026Z,76.12
2022-11-05T00:16:46.937Z,76.29
2022-11-05T00:19:14.933Z,76.07
2022-11-05T00:22:16.003Z,76.60
2022-11-05T00:25:03.241Z,76.42
2022-11-05T00:27:33.877Z,75.93
2022-11-05T00:30:01.442Z,76.69
2022-11-05T00:32:28.998Z,76.27
2022-11-05T00:34:56.551Z,76.34
2022-11-05T00:37:25.351Z,76.94
2022-11-05T00:39:52.842Z,76.04
2022-11-05T00:42:38.203Z,76.60
2022-11-05T00:45:07.282Z,76.13
2022-11-05T00:47:52.732Z,76.74
2022-11-05T00:50:22.285Z,76.82
2022-11-05T00:52:59.586Z,76.35
2022-11-05T00:55:38.163Z,76.75
2022-11-05T00:58:08.211Z,76.63
2022-11-05T01:00:37.523Z,76.37
2022-11-05T01:03:09.840Z,76.25
2022-11-05T01:05:53.719Z,76.53
2022-11-05T01:08:24.639Z,76.87
2022-11-05T01:10:54.485Z,76.65
2022-11-05T01:13:26.267Z,76.41
2022-11-05T01:15:55.963Z,76.87
2022-11-05T01:18:25.319Z,76.94
2022-11-05T01:20:53.116Z,76.32
2022-11-05T01:23:23.135Z,76.96
2022-11-05T01:25:52.564Z,77.21
2022-11-05T01:28:20.176Z,76.87
2022-11-05T01:30:56.232Z,76.93
2022-11-05T01:33:23.769Z,76.80
2022-11-05T01:35:53.418Z,76.69
2022-11-05T01:38:25.474Z,77.32
2022-11-05T01:40:53.967Z,76.75
2022-11-05T01:43:23.721Z,76.79
2022-11-05T01:45:53.755Z,77.00
2022-11-05T01:48:23.733Z,76.99
2022-11-05T01:50:58.488Z,76.51
2022-11-05T01:53:33.349Z,76.57
2022-11-05T01:56:10.126Z,76.65
2022-11-05T01:58:40.933Z,76.61
2022-11-05T02:01:09.320Z,76.68
2022-11-05T02:03:38.596Z,77.10
2022-11-05T02:06:09.328Z,76.45
2022-11-05T02:08:53.594Z,76.74
2022-11-05T02:11:22.033Z,77.05
2022-11-05T02:13:50.913Z,76.69
2022-11-05T02:16:32.405Z,77.17
2022-11-05T02:19:09.170Z,76.90
2022-11-05T02:21:58.032Z,77.53
2022-11-05T02:24:54.546Z,77.25
2022-11-05T02:27:43.635Z,77.31
2022-11-05T02:30:26.675Z,76.95
2022-11-05T02:33:11.529Z,77.04
2022-11-05T02:35:53.430Z,76.55
2022-11-05T02:38:32.277Z,76.88
2022-11-05T02:41:07.541Z,76.90
2022-11-05T02:43:46.686Z,77.31
2022-11-05T02:46:26.618Z,77.18
2022-11-05T02:49:00.880Z,77.38
2022-11-05T02:51:33.980Z,77.63
2022-11-05T02:54:10.571Z,77.93
2022-11-05T02:56:42.712Z,77.73
2022-11-05T02:59:10.397Z,77.32
2022-11-05T03:01:42.276Z,77.18
2022-11-05T03:04:13.767Z,77.34
2022-11-05T03:06:59.541Z,77.44
2022-11-05T03:09:41.317Z,77.38
2022-11-05T03:12:27.884Z,77.20
2022-11-05T03:15:07.936Z,77.46
2022-11-05T03:17:59.471Z,76.92
2022-11-05T03:20:39.909Z,76.80
2022-11-05T03:23:26.459Z,77.07
2022-11-05T03:26:09.290Z,77.38
2022-11-05T03:28:51.876Z,77.44
2022-11-05T03:31:35.246Z,77.19
2022-11-05T03:34:10.679Z,77.38
2022-11-05T03:36:59.779Z,76.95
2022-11-05T03:39:32.348Z,76.67
2022-11-05T03:42:02.427Z,76.81
2022-11-05T03:44:41.290Z,77.05
2022-11-05T03:47:21.139Z,76.81
2022-11-05T03:50:03.436Z,77.08
2022-11-05T03:52:36.476Z,77.24
2022-11-05T03:55:10.267Z,76.67
2022-11-05T03:58:09.338Z,77.07
2022-11-05T04:00:37.352Z,77.17
2022-11-05T04:03:09.479Z,76.81
2022-11-05T04:06:10.460Z,76.97
2022-11-05T04:09:24.271Z,76.98
2022-11-05T04:15:01.284Z,76.73
2022-11-05T04:17:28.220Z,77.03
2022-11-05T04:20:21.357Z,77.05
2022-11-05T04:23:17.875Z,77.12
2022-11-05T04:26:14.200Z,76.80
2022-11-05T04:29:12.491Z,76.92
2022-11-05T04:31:59.435Z,76.45
2022-11-05T04:35:25.144Z,76.88
2022-11-05T04:41:28.417Z,76.48
2022-11-05T04:43:55.991Z,76.85
2022-11-05T04:46:23.438Z,77.16
2022-11-05T04:48:52.960Z,76.96
2022-11-05T04:51:20.499Z,76.34
2022-11-05T04:53:49.464Z,76.78
2022-11-05T04:56:20.680Z,76.90
2022-11-05T04:58:48.711Z,76.50
2022-11-05T05:01:17.741Z,76.71
2022-11-05T05:03:47.637Z,76.77
2022-11-05T05:06:15.716Z,76.33
2022-11-05T05:08:43.214Z,76.90
2022-11-05T05:11:14.876Z,76.68
2022-11-05T05:13:42.362Z,76.35
2022-11-05T05:16:16.670Z,77.10
2022-11-05T05:18:46.470Z,76.51
2022-11-05T05:21:32.092Z,76.48
2022-11-05T05:23:59.824Z,76.96
2022-11-05T05:26:29.072Z,76.39
2022-11-05T05:28:56.657Z,76.72
2022-11-05T05:31:24.623Z,76.67
2022-11-05T05:33:54.017Z,76.72
2022-11-05T05:36:21.654Z,76.56
2022-11-05T05:38:49.410Z,76.61
2022-11-05T05:41:17.560Z,76.34
2022-11-05T05:43:46.867Z,76.54
2022-11-05T05:46:16.154Z,76.44
2022-11-05T05:48:44.360Z,76.95
2022-11-05T05:51:12.817Z,76.58
2022-11-05T05:53:40.617Z,76.78
2022-11-05T05:56:08.546Z,76.52
2022-11-05T05:58:38.314Z,76.62
2022-11-05T06:01:15.568Z,76.80
2022-11-05T06:03:46.654Z,77.00
2022-11-05T06:06:15.948Z,76.91
2022-11-05T06:08:44.155Z,76.49
2022-11-05T06:11:11.918Z,76.69
2022-11-05T06:13:39.881Z,76.35
2022-11-05T06:16:10.322Z,76.80
2022-11-05T06:18:38.775Z,76.40
2022-11-05T06:21:08.496Z,76.40
2022-11-05T06:23:37.619Z,76.21
2022-11-05T06:26:07.546Z,76.50
2022-11-05T06:28:35.863Z,76.01
2022-11-05T06:31:06.317Z,76.44
2022-11-05T06:33:35.490Z,76.37
2022-11-05T06:36:04.390Z,76.77
2022-11-05T06:38:34.097Z,76.24
2022-11-05T06:41:07.213Z,76.26
2022-11-05T06:43:37.574Z,76.25
2022-11-05T06:46:06.035Z,76.33
2022-11-05T06:48:35.596Z,76.14
2022-11-05T06:51:03.743Z,76.20
2022-11-05T06:53:32.164Z,76.73
2022-11-05T06:56:03.710Z,76.63
2022-11-05T06:58:32.065Z,76.46
2022-11-05T07:01:04.060Z,76.48
2022-11-05T07:03:31.935Z,76.32
2022-11-05T07:06:04.535Z,76.66
2022-11-05T07:08:33.528Z,76.37
2022-11-05T07:11:01.393Z,76.38
2022-11-05T07:13:29.154Z,76.67
2022-11-05T07:15:57.168Z,76.44
2022-11-05T07:18:25.244Z,76.10
2022-11-05T07:20:53.060Z,76.04
2022-11-05T07:23:22.018Z,76.13
2022-11-05T07:25:53.984Z,76.24
2022-11-05T07:28:21.952Z,76.44
2022-11-05T07:30:49.470Z,76.69
2022-11-05T07:33:17.075Z,76.42
2022-11-05T07:35:44.604Z,76.31
2022-11-05T07:38:12.723Z,76.02
2022-11-05T07:40:44.598Z,76.38
2022-11-05T07:43:12.710Z,76.53
2022-11-05T07:45:40.523Z,76.40
2022-11-05T07:48:13.588Z,76.60
2022-11-05T07:50:42.308Z,75.83
2022-11-05T07:53:13.631Z,76.29
2022-11-05T07:55:42.689Z,76.62
2022-11-05T07:58:12.422Z,76.35
2022-11-05T08:00:40.594Z,76.33
2022-11-05T08:03:11.699Z,76.48
2022-11-05T08:05:41.345Z,76.44
2022-11-05T08:08:10.982Z,76.27
2022-11-05T08:10:40.269Z,76.05
2022-11-05T08:13:09.122Z,76.65
2022-11-05T08:15:38.960Z,76.46
2022-11-05T08:18:08.760Z,76.45
2022-11-05T08:20:38.700Z,76.12
2022-11-05T08:23:06.508Z,75.82
2022-11-05T08:25:34.885Z,76.19
2022-11-05T08:28:05.186Z,76.37
2022-11-05T08:30:33.342Z,76.34
2022-11-05T08:33:03.571Z,76.04
2022-11-05T08:35:33.059Z,75.92
2022-11-05T08:38:02.859Z,76.12
2022-11-05T08:40:32.272Z,76.33
2022-11-05T08:43:01.976Z,76.03
2022-11-05T08:45:34.073Z,76.07
2022-11-05T08:48:05.527Z,76.07
2022-11-05T08:50:34.564Z,76.30
2022-11-05T08:53:02.863Z,76.15
2022-11-05T08:55:30.747Z,76.05
2022-11-05T08:57:59.727Z,75.95
2022-11-05T09:00:29.091Z,76.05
2022-11-05T09:02:59.776Z,75.72
2022-11-05T09:05:31.923Z,75.55
2022-11-05T09:08:01.518Z,76.00
2022-11-05T09:10:29.745Z,75.46
2022-11-05T09:12:57.493Z,75.85
2022-11-05T09:15:29.242Z,75.55
2022-11-05T09:17:59.780Z,75.63
2022-11-05T09:20:30.513Z,75.18
2022-11-05T09:22:58.452Z,75.74
2022-11-05T09:25:27.157Z,76.00
2022-11-05T09:27:55.527Z,75.38
2022-11-05T09:30:24.619Z,75.11
2022-11-05T09:32:53.477Z,75.60
2022-11-05T09:35:24.612Z,74.94
2022-11-05T09:37:58.188Z,75.27
2022-11-05T09:40:32.011Z,75.47
2022-11-05T09:43:00.721Z,75.14
2022-11-05T09:45:29.931Z,74.76
2022-11-05T09:48:02.503Z,74.87
2022-11-05T09:50:34.858Z,75.15
2022-11-05T09:53:21.656Z,74.79
2022-11-05T09:55:52.840Z,74.90
2022-11-05T09:58:28.734Z,75.23
2022-11-05T10:00:58.099Z,74.60
2022-11-05T10:03:32.350Z,75.07
2022-11-05T10:06:10.989Z,74.68
2022-11-05T10:08:44.069Z,74.80
2022-11-05T10:11:18.277Z,75.06
2022-11-05T10:13:50.118Z,75.84
2022-11-05T10:16:25.756Z,75.35
2022-11-05T10:18:56.625Z,75.87
2022-11-05T10:21:51.558Z,75.43
2022-11-05T10:24:20.227Z,74.07
2022-11-05T10:26:50.613Z,74.56
2022-11-05T10:29:25.137Z,73.56
2022-11-05T10:31:55.528Z,73.71
2022-11-05T10:34:28.195Z,71.96
2022-11-05T10:36:56.064Z,71.95
2022-11-05T10:39:27.621Z,70.51
2022-11-05T10:42:11.736Z,69.31
2022-11-05T10:44:45.280Z,69.59
2022-11-05T10:47:42.836Z,68.53
2022-11-05T10:50:12.689Z,68.70
2022-11-05T10:52:55.153Z,68.20
2022-11-05T10:55:26.452Z,66.99
2022-11-05T10:57:54.447Z,66.69
2022-11-05T11:00:25.890Z,65.85
2022-11-05T11:02:55.830Z,65.54
2022-11-05T11:05:26.796Z,64.09
2022-11-05T11:08:03.595Z,62.31
2022-11-05T11:10:38.542Z,61.71
2022-11-05T11:13:08.358Z,60.14
2022-11-05T11:15:37.265Z,59.24
2022-11-05T11:18:26.108Z,58.17
2022-11-05T11:20:53.790Z,56.58
2022-11-05T11:23:21.272Z,56.32
2022-11-05T11:25:53.708Z,56.32
2022-11-05T11:28:24.742Z,56.09
2022-11-05T11:31:01.998Z,54.74
2022-11-05T11:33:30.763Z,54.18
2022-11-05T11:35:59.606Z,53.77
2022-11-05T11:38:32.219Z,51.96
2022-11-05T11:41:25.794Z,50.85
2022-11-05T11:43:58.193Z,50.94
2022-11-05T11:46:26.564Z,50.35
2022-11-05T11:48:54.321Z,49.96
2022-11-05T11:51:32.249Z,49.83
2022-11-05T11:54:01.157Z,49.06
2022-11-05T11:56:32.653Z,49.02
2022-11-05T11:59:04.165Z,49.85
2022-11-05T12:01:56.691Z,48.76
2022-11-05T12:04:41.614Z,48.55
2022-11-05T12:07:23.310Z,47.14
2022-11-05T12:10:03.173Z,46.38
2022-11-05T12:12:39.333Z,45.51
2022-11-05T12:15:26.480Z,46.94
2022-11-05T12:17:59.892Z,45.42
2022-11-05T12:20:56.949Z,46.77
2022-11-05T12:23:40.346Z,45.56
2022-11-05T12:26:14.113Z,45.02
2022-11-05T12:29:17.730Z,45.23
2022-11-05T12:31:51.961Z,45.86
2022-11-05T12:34:38.188Z,45.83
2022-11-05T12:37:21.598Z,47.06
2022-11-05T12:40:10.073Z,46.93
2022-11-05T12:42:52.769Z,46.30
2022-11-05T12:45:37.366Z,45.62
2022-11-05T12:48:37.424Z,46.69
2022-11-05T12:51:15.498Z,46.02
2022-11-05T12:53:56.117Z,46.31
2022-11-05T12:56:32.100Z,46.29
2022-11-05T12:59:05.161Z,46.52
2022-11-05T13:01:38.730Z,45.78
2022-11-05T13:04:14.803Z,45.95
2022-11-05T13:06:46.353Z,44.82
2022-11-05T13:09:18.429Z,45.57
2022-11-05T13:11:53.511Z,46.23
2022-11-05T13:14:25.834Z,45.17
2022-11-05T13:16:59.990Z,45.48
2022-11-05T13:19:33.011Z,44.93
2022-11-05T13:22:09.713Z,45.20
2022-11-05T13:24:41.386Z,45.92
2022-11-05T13:27:27.383Z,46.51
2022-11-05T13:30:03.350Z,46.46
2022-11-05T13:32:37.558Z,46.40
2022-11-05T13:35:15.635Z,46.34
2022-11-05T13:38:07.189Z,46.25
2022-11-05T13:40:45.405Z,45.93
2022-11-05T13:43:26.767Z,46.60
2022-11-05T13:46:16.119Z,47.27
2022-11-05T13:49:10.780Z,47.48
2022-11-05T13:51:49.863Z,47.71
2022-11-05T13:54:51.116Z,47.96
2022-11-05T13:57:32.948Z,47.55
2022-11-05T14:00:12.056Z,47.77
2022-11-05T14:02:43.554Z,47.43
2022-11-05T14:05:26.177Z,48.15
2022-11-05T14:07:55.493Z,48.20
2022-11-05T14:10:31.760Z,48.24
2022-11-05T14:13:03.179Z,48.35
2022-11-05T14:15:34.007Z,47.93
2022-11-05T14:18:03.855Z,48.21
2022-11-05T14:20:57.148Z,49.07
2022-11-05T14:23:53.014Z,48.93
2022-11-05T14:26:25.656Z,48.82
2022-11-05T14:29:31.454Z,49.35
2022-11-05T14:32:09.543Z,49.34
2022-11-05T14:34:44.271Z,49.46
2022-11-05T14:37:27.201Z,49.41
2022-11-05T14:39:56.402Z,49.21
2022-11-05T14:42:27.687Z,49.46
2022-11-05T14:45:21.128Z,49.60
2022-11-05T14:47:55.021Z,49.67
2022-11-05T14:50:28.984Z,49.79
2022-11-05T14:53:00.229Z,50.13
2022-11-05T14:55:33.895Z,50.03
2022-11-05T14:58:07.645Z,49.87
2022-11-05T15:00:48.752Z,50.05
2022-11-05T15:03:34.526Z,50.49
2022-11-05T15:06:22.245Z,50.36
2022-11-05T15:09:26.437Z,50.74
2022-11-05T15:12:09.506Z,50.62
2022-11-05T15:14:43.298Z,50.64
2022-11-05T15:17:18.637Z,50.71
2022-11-05T15:19:47.972Z,50.67
2022-11-05T15:22:31.877Z,51.03
2022-11-05T15:25:02.746Z,50.86
2022-11-05T15:27:48.142Z,51.01
2022-11-05T15:30:18.079Z,51.14
2022-11-05T15:32:45.877Z,51.29
2022-11-05T15:35:22.360Z,51.47
2022-11-05T15:37:55.905Z,51.46
2022-11-05T15:40:29.840Z,51.53
2022-11-05T15:43:12.583Z,51.60
2022-11-05T15:45:40.733Z,51.67
2022-11-05T15:48:16.587Z,51.76
2022-11-05T15:50:45.139Z,51.92
2022-11-05T15:53:44.083Z,52.05
2022-11-05T15:56:13.299Z,52.24
2022-11-05T15:58:47.928Z,52.24
2022-11-05T16:01:25.550Z,52.35
2022-11-05T16:03:54.482Z,52.44
2022-11-05T16:06:24.031Z,52.54
2022-11-05T16:08:52.241Z,52.61
2022-11-05T16:11:27.510Z,52.87
2022-11-05T16:14:15.253Z,52.98
2022-11-05T16:16:43.707Z,53.00
2022-11-05T16:19:39.813Z,53.28
2022-11-05T16:22:09.055Z,53.13
2022-11-05T16:24:38.472Z,53.31
2022-11-05T16:27:08.140Z,53.21
2022-11-05T16:29:40.536Z,53.77
2022-11-05T16:32:16.714Z,53.71
2022-11-05T16:34:49.682Z,53.55
2022-11-05T16:37:20.109Z,54.01
2022-11-05T16:39:49.666Z,53.79
2022-11-05T16:42:48.910Z,54.02
2022-11-05T16:45:20.577Z,54.10
2022-11-05T16:47:49.123Z,54.51
2022-11-05T16:50:22.710Z,54.48
2022-11-05T16:52:54.538Z,54.73
2022-11-05T16:58:21.761Z,54.59
2022-11-05T17:00:52.356Z,54.55
2022-11-05T17:03:25.513Z,54.77
2022-11-05T17:06:07.916Z,55.25
2022-11-05T17:08:47.599Z,55.49
2022-11-05T17:11:21.151Z,55.14
2022-11-05T17:13:52.637Z,55.23
2022-11-05T17:16:28.582Z,55.26
2022-11-05T17:19:07.061Z,55.93
2022-11-05T17:21:38.117Z,55.70
2022-11-05T17:24:21.843Z,56.14
2022-11-05T17:26:52.100Z,55.92
2022-11-05T17:29:24.181Z,56.34
2022-11-05T17:32:00.052Z,55.97
2022-11-05T17:34:29.243Z,56.17
2022-11-05T17:39:42.558Z,56.63
2022-11-05T17:42:11.766Z,56.61
2022-11-05T17:44:43.421Z,56.54
2022-11-05T17:47:14.228Z,56.66
2022-11-05T17:49:42.831Z,56.27
2022-11-05T17:52:11.447Z,56.40
2022-11-05T17:54:39.314Z,56.28
2022-11-05T17:57:07.465Z,56.78
2022-11-05T17:59:35.362Z,56.45
2022-11-05T18:02:05.291Z,56.80
2022-11-05T18:04:34.778Z,57.29
2022-11-05T18:07:02.787Z,57.75
2022-11-05T18:09:31.404Z,57.04
2022-11-05T18:11:59.905Z,56.90
2022-11-05T18:14:28.024Z,56.77
2022-11-05T18:17:00.234Z,57.61
2022-11-05T18:19:29.850Z,57.33
2022-11-05T18:21:57.998Z,57.45
2022-11-05T18:24:25.612Z,57.18
2022-11-05T18:26:53.480Z,57.59
2022-11-05T18:29:21.057Z,57.53
2022-11-05T18:31:48.952Z,57.97
2022-11-05T18:34:16.506Z,58.54
2022-11-05T18:36:45.643Z,57.80
2022-11-05T18:39:14.450Z,57.72
2022-11-05T18:44:39.431Z,57.91
2022-11-05T18:47:07.735Z,58.11
2022-11-05T18:49:36.384Z,58.33
2022-11-05T18:52:05.801Z,58.50
2022-11-05T18:54:33.275Z,58.42
2022-11-05T18:57:00.766Z,58.58
2022-11-05T18:59:38.255Z,59.14
2022-11-05T19:02:08.530Z,58.83
2022-11-05T19:04:36.428Z,59.10
2022-11-05T19:07:06.158Z,59.12
2022-11-05T19:09:34.239Z,59.19
2022-11-05T19:12:01.962Z,59.43
2022-11-05T19:14:30.058Z,59.58
2022-11-05T19:16:58.026Z,59.60
2022-11-05T19:19:25.689Z,59.62
2022-11-05T19:21:53.516Z,59.62
2022-11-05T19:24:22.418Z,59.47
2022-11-05T19:26:50.386Z,59.94
2022-11-05T19:29:18.091Z,59.84
2022-11-05T19:31:46.073Z,59.75
2022-11-05T19:34:20.108Z,60.09
2022-11-05T19:36:48.080Z,60.37
2022-11-05T19:39:15.705Z,60.48
2022-11-05T19:41:44.479Z,60.15
2022-11-05T19:44:12.138Z,59.99
2022-11-05T19:46:39.661Z,60.18
2022-11-05T19:49:07.188Z,60.22
2022-11-05T19:51:39.719Z,60.35
2022-11-05T19:54:08.143Z,61.38
2022-11-05T19:56:36.731Z,60.57
2022-11-05T19:59:06.881Z,60.86
2022-11-05T20:01:35.204Z,61.00
2022-11-05T20:04:03.476Z,61.09
2022-11-05T20:06:33.390Z,61.21
2022-11-05T20:11:53.851Z,61.58
2022-11-05T20:14:23.702Z,61.33
2022-11-05T20:16:51.769Z,61.54
2022-11-05T20:19:21.653Z,61.45
2022-11-05T20:21:49.437Z,61.50
2022-11-05T20:24:24.844Z,61.66
2022-11-05T20:26:53.791Z,62.05
2022-11-05T20:29:23.391Z,62.08
2022-11-05T20:31:51.507Z,61.98
2022-11-05T20:34:22.070Z,61.92
2022-11-05T20:36:49.842Z,62.16
2022-11-05T20:39:18.283Z,61.96
2022-11-05T20:41:45.980Z,62.32
2022-11-05T20:44:15.182Z,62.37
2022-11-05T20:46:44.399Z,62.13
2022-11-05T20:49:12.341Z,62.25
2022-11-05T20:51:40.020Z,62.65
2022-11-05T20:54:07.922Z,62.97
2022-11-05T20:56:35.837Z,62.32
2022-11-05T20:59:05.585Z,62.55
2022-11-05T21:01:35.295Z,62.49
2022-11-05T21:04:05.186Z,62.46
2022-11-05T21:06:34.797Z,62.61
2022-11-05T21:09:03.502Z,62.56
2022-11-05T21:11:51.261Z,62.75
2022-11-05T21:14:18.980Z,62.47
2022-11-05T21:16:46.768Z,62.97
2022-11-05T21:19:16.135Z,62.95
2022-11-05T21:21:43.986Z,62.76
2022-11-05T21:24:11.567Z,62.81
2022-11-05T21:26:39.799Z,63.05
2022-11-05T21:29:07.673Z,63.21
2022-11-05T21:31:37.056Z,63.53
2022-11-05T21:34:05.085Z,63.65
2022-11-05T21:36:33.934Z,63.52
2022-11-05T21:39:01.506Z,63.83
2022-11-05T21:41:29.107Z,64.19
2022-11-05T21:43:57.429Z,64.25
2022-11-05T21:46:25.456Z,63.93
2022-11-05T21:48:53.036Z,64.01
2022-11-05T21:51:38.348Z,64.18
2022-11-05T21:54:30.857Z,64.12
2022-11-05T21:57:16.430Z,63.93
2022-11-05T21:59:51.692Z,64.41
2022-11-05T22:02:21.590Z,64.16
2022-11-05T22:04:51.492Z,64.42
2022-11-05T22:07:21.380Z,64.68
2022-11-05T22:09:50.824Z,64.03
2022-11-05T22:12:18.413Z,64.44
2022-11-05T22:14:45.920Z,64.29
2022-11-05T22:17:21.264Z,64.54
2022-11-05T22:19:50.374Z,64.89
2022-11-05T22:22:18.130Z,64.77
2022-11-05T22:24:46.100Z,64.92
2022-11-05T22:27:16.712Z,65.13
2022-11-05T22:29:44.502Z,64.88
2022-11-05T22:32:12.159Z,64.99
2022-11-05T22:34:41.192Z,65.47
2022-11-05T22:37:09.339Z,65.01
2022-11-05T22:39:36.870Z,65.16
2022-11-05T22:42:08.259Z,65.24
2022-11-05T22:44:38.424Z,65.25
2022-11-05T22:47:06.560Z,65.68
2022-11-05T22:49:34.347Z,65.58
2022-11-05T22:52:01.812Z,65.54
2022-11-05T22:54:29.385Z,65.40
2022-11-05T22:56:56.878Z,65.55
2022-11-05T22:59:24.821Z,65.92
2022-11-05T23:01:53.720Z,65.66
2022-11-05T23:04:21.258Z,65.97
2022-11-05T23:07:06.467Z,65.75
2022-11-05T23:09:55.536Z,66.22
2022-11-05T23:12:27.086Z,66.71
2022-11-05T23:14:55.876Z,66.71
2022-11-05T23:17:42.844Z,66.31
2022-11-05T23:20:32.352Z,67.01
2022-11-05T23:23:18.011Z,66.37
2022-11-05T23:25:45.930Z,67.06
2022-11-05T23:28:14.595Z,66.71
2022-11-05T23:30:58.831Z,67.00
2022-11-05T23:33:30.704Z,67.47
2022-11-05T23:36:15.940Z,67.05
2022-11-05T23:38:43.692Z,66.81
2022-11-05T23:41:28.954Z,66.95
2022-11-05T23:44:14.309Z,67.04
2022-11-05T23:46:59.656Z,67.17
2022-11-05T23:49:28.536Z,67.23
2022-11-05T23:51:56.004Z,67.90
2022-11-05T23:54:23.456Z,68.01
2022-11-05T23:56:52.496Z,67.40
2022-11-05T23:59:20.079Z,67.51
